Time;durP1;ratioP1;P1;durP2;ratioP2;P2;SDS_P1;SDS_P2;PMS_P1;PMS_P2;Temp;Humidity;BMP_temperature;BMP_pressure;BME280_temperature;BME280_humidity;BME280_pressure;Samples;Min_cycle;Max_cycle;Signal;HPM_P1;HPM_P2
2020/12/12 00:00:32;;;;;;;21.70;12.17;;;;;;;3.70;100.00;94062.84;5042596;28;20505;-88
2020/12/12 00:02:59;;;;;;;18.77;11.13;;;;;;;3.78;100.00;94060.13;5042635;28;20444;-88
2020/12/12 00:05:25;;;;;;;17.80;10.80;;;;;;;3.76;100.00;94062.59;5041877;28;20447;-89
2020/12/12 00:07:52;;;;;;;18.07;11.50;;;;;;;3.85;100.00;94051.31;5042694;28;20536;-89
2020/12/12 00:10:23;;;;;;;18.60;9.93;;;;;;;3.85;100.00;94055.94;5041128;28;20446;-86
2020/12/12 00:12:50;;;;;;;17.63;10.70;;;;;;;3.85;100.00;94056.66;5040254;28;20429;-85
2020/12/12 00:15:16;;;;;;;23.90;12.17;;;;;;;3.89;100.00;94056.22;5039791;28;20447;-85
2020/12/12 00:17:42;;;;;;;20.20;11.20;;;;;;;3.86;100.00;94057.34;5040277;28;21015;-86
2020/12/12 00:20:09;;;;;;;17.90;12.10;;;;;;;3.95;100.00;94052.06;5040657;28;20548;-86
2020/12/12 00:22:35;;;;;;;20.80;11.53;;;;;;;3.88;99.82;94058.22;5041127;28;20414;-88
2020/12/12 00:25:04;;;;;;;21.20;12.00;;;;;;;3.90;99.95;94050.38;5040458;28;20467;-87
2020/12/12 00:27:30;;;;;;;19.03;11.70;;;;;;;3.84;100.00;94049.91;5040056;28;20503;-87
2020/12/12 00:29:57;;;;;;;24.40;14.70;;;;;;;3.82;100.00;94055.09;5040494;28;20414;-87
2020/12/12 00:32:23;;;;;;;23.63;13.50;;;;;;;3.84;100.00;94060.56;5039998;28;20429;-87
2020/12/12 00:34:49;;;;;;;24.80;14.53;;;;;;;3.88;100.00;94060.88;5041414;28;20432;-89
2020/12/12 00:37:18;;;;;;;24.03;13.67;;;;;;;3.84;100.00;94041.19;5042380;28;20396;-90
2020/12/12 00:39:45;;;;;;;22.70;13.70;;;;;;;3.90;100.00;94060.31;5042256;28;20839;-89
2020/12/12 00:42:12;;;;;;;27.33;14.77;;;;;;;3.85;100.00;94042.63;5041637;28;20443;-89
2020/12/12 00:44:39;;;;;;;26.27;13.33;;;;;;;3.91;100.00;94049.13;5041162;28;20439;-90
2020/12/12 00:47:05;;;;;;;31.17;14.13;;;;;;;3.82;100.00;94043.72;5041253;28;20752;-89
2020/12/12 00:49:32;;;;;;;20.00;12.37;;;;;;;3.86;100.00;94039.38;5042413;28;20445;-88
2020/12/12 00:51:59;;;;;;;26.77;13.83;;;;;;;3.92;100.00;94039.84;5040666;28;20897;-91
2020/12/12 00:54:25;;;;;;;23.83;12.63;;;;;;;3.95;100.00;94032.69;5041923;28;20449;-90
2020/12/12 00:56:52;;;;;;;20.57;13.20;;;;;;;3.91;99.62;94037.72;5041171;28;20417;-90
2020/12/12 00:59:19;;;;;;;25.17;13.90;;;;;;;3.94;99.91;94037.34;5042349;28;20511;-90
2020/12/12 01:01:46;;;;;;;16.60;10.80;;;;;;;3.97;99.99;94038.91;5040338;28;20503;-89
2020/12/12 01:04:13;;;;;;;19.77;11.93;;;;;;;4.02;99.29;94050.56;5040749;28;20436;-89
2020/12/12 01:06:40;;;;;;;21.03;12.37;;;;;;;4.05;99.12;94050.16;5040676;28;20454;-89
2020/12/12 01:09:06;;;;;;;21.40;11.73;;;;;;;3.98;99.25;94052.94;5040614;28;20426;-89
2020/12/12 01:11:33;;;;;;;18.53;11.20;;;;;;;3.93;99.52;94057.25;5041610;28;20438;-89
2020/12/12 01:13:59;;;;;;;21.97;11.63;;;;;;;4.09;99.21;94063.81;5040992;28;20515;-88
2020/12/12 01:16:27;;;;;;;24.73;12.40;;;;;;;4.03;99.48;94065.31;5040988;28;20417;-88
2020/12/12 01:18:53;;;;;;;22.20;13.17;;;;;;;4.02;99.30;94067.28;5041486;28;20462;-88
2020/12/12 01:21:20;;;;;;;18.40;11.97;;;;;;;4.10;99.14;94067.19;5041330;28;20482;-88
2020/12/12 01:23:47;;;;;;;20.53;12.13;;;;;;;4.00;99.32;94072.47;5041142;28;20441;-87
2020/12/12 01:26:14;;;;;;;26.50;11.90;;;;;;;4.12;99.04;94068.06;5040553;28;20519;-89
2020/12/12 01:28:40;;;;;;;18.40;11.63;;;;;;;4.10;99.17;94069.88;5041513;28;20458;-89
2020/12/12 01:31:10;;;;;;;18.60;10.87;;;;;;;4.10;98.98;94069.88;5039610;28;20447;-88
2020/12/12 01:33:38;;;;;;;20.13;11.90;;;;;;;4.00;99.04;94069.09;5053492;28;20408;-87
2020/12/12 01:36:05;;;;;;;18.00;10.50;;;;;;;4.08;99.38;94064.38;5060783;28;20423;-86
2020/12/12 01:38:36;;;;;;;19.10;11.83;;;;;;;3.99;98.85;94060.38;5060606;28;20440;-87
2020/12/12 01:41:04;;;;;;;19.17;11.37;;;;;;;4.05;99.36;94063.50;5060504;28;20464;-87
2020/12/12 01:43:30;;;;;;;21.63;12.70;;;;;;;4.10;99.18;94059.19;5041354;28;20511;-89
2020/12/12 01:45:57;;;;;;;23.60;13.13;;;;;;;4.00;99.47;94069.09;5040045;28;20450;-87
2020/12/12 01:48:23;;;;;;;19.67;11.87;;;;;;;4.04;99.79;94054.09;5040411;28;20459;-88
2020/12/12 01:50:51;;;;;;;19.03;10.33;;;;;;;4.02;99.13;94059.28;5039553;28;20443;-89
2020/12/12 01:53:18;;;;;;;15.07;9.70;;;;;;;3.98;99.42;94069.63;5039861;28;20790;-88
2020/12/12 01:55:48;;;;;;;17.17;10.03;;;;;;;3.97;99.51;94076.25;5039066;28;20434;-88
2020/12/12 01:58:15;;;;;;;15.20;10.50;;;;;;;4.02;99.38;94077.25;5039677;28;20494;-88
2020/12/12 02:00:42;;;;;;;16.97;10.87;;;;;;;3.98;98.75;94074.97;5039198;28;20454;-88
2020/12/12 02:03:11;;;;;;;17.27;11.10;;;;;;;3.92;98.84;94074.50;5040370;28;20479;-88
2020/12/12 02:05:41;;;;;;;13.80;8.80;;;;;;;3.95;98.63;94070.75;5039581;28;20467;-89
2020/12/12 02:08:11;;;;;;;17.77;11.00;;;;;;;3.86;98.41;94074.06;5039979;28;20463;-89
2020/12/12 02:10:39;;;;;;;16.27;10.00;;;;;;;3.83;98.37;94069.81;5040336;28;20468;-88
2020/12/12 02:13:07;;;;;;;17.53;10.70;;;;;;;3.72;98.96;94068.34;5039242;28;20429;-86
2020/12/12 02:15:33;;;;;;;17.43;10.07;;;;;;;3.69;99.13;94068.75;5037459;28;20779;-86
2020/12/12 02:18:00;;;;;;;16.03;10.57;;;;;;;3.73;99.43;94074.38;5036035;28;20474;-85
2020/12/12 02:20:27;;;;;;;20.47;10.67;;;;;;;3.73;99.33;94071.72;5037854;28;20483;-84
2020/12/12 02:22:55;;;;;;;21.80;12.23;;;;;;;3.73;99.41;94067.09;5043128;28;20442;-82
2020/12/12 02:25:22;;;;;;;15.50;9.80;;;;;;;3.70;99.23;94070.16;5041264;28;20418;-84
2020/12/12 02:27:50;;;;;;;13.80;9.60;;;;;;;3.68;99.57;94068.03;5036953;28;20489;-84
2020/12/12 02:30:17;;;;;;;18.60;10.37;;;;;;;3.77;99.29;94066.69;5038564;28;20444;-82
2020/12/12 02:32:43;;;;;;;20.17;12.03;;;;;;;3.75;99.04;94053.91;5043460;28;20430;-83
2020/12/12 02:35:10;;;;;;;18.43;10.63;;;;;;;3.67;99.29;94055.97;5043067;28;20474;-82
2020/12/12 02:37:36;;;;;;;17.60;11.40;;;;;;;3.64;99.39;94059.00;5038360;28;20413;-85
2020/12/12 02:40:04;;;;;;;13.10;9.90;;;;;;;3.67;99.44;94063.25;5037516;28;20449;-83
2020/12/12 02:42:31;;;;;;;15.67;9.33;;;;;;;3.66;99.35;94064.53;5043735;28;20431;-84
2020/12/12 02:44:57;;;;;;;16.27;9.57;;;;;;;3.60;99.39;94056.75;5043969;28;20939;-83
2020/12/12 02:47:24;;;;;;;17.03;9.60;;;;;;;3.70;99.51;94054.84;5043639;28;20447;-82
2020/12/12 02:50:08;;;;;;;18.13;8.77;;;;;;;3.71;99.37;94053.59;5044226;28;20459;-83
2020/12/12 02:52:35;;;;;;;14.47;9.63;;;;;;;3.65;99.26;94049.75;5037230;28;20538;-84
2020/12/12 02:55:02;;;;;;;12.63;8.60;;;;;;;3.68;99.50;94044.03;5037149;28;20974;-84
2020/12/12 02:57:29;;;;;;;13.37;8.50;;;;;;;3.71;99.97;94047.56;5037706;28;20856;-84
2020/12/12 02:59:55;;;;;;;14.77;8.87;;;;;;;3.81;99.62;94047.63;5043085;28;20430;-82
2020/12/12 03:02:22;;;;;;;17.10;8.70;;;;;;;3.86;99.51;94055.38;5043343;28;20497;-83
2020/12/12 03:04:48;;;;;;;15.07;9.77;;;;;;;3.86;99.08;94049.34;5042593;28;20438;-84
2020/12/12 03:07:14;;;;;;;18.50;9.70;;;;;;;3.95;98.81;94054.72;5042663;28;20413;-83
2020/12/12 03:09:41;;;;;;;13.70;9.30;;;;;;;3.96;98.77;94053.50;5042441;28;20429;-83
2020/12/12 03:12:07;;;;;;;14.50;8.63;;;;;;;3.91;98.81;94059.78;5036602;28;20780;-84
2020/12/12 03:14:34;;;;;;;15.20;9.47;;;;;;;3.86;99.10;94058.03;5036760;28;20414;-84
2020/12/12 03:17:01;;;;;;;9.97;7.80;;;;;;;3.99;99.31;94057.00;5036670;28;20444;-84
2020/12/12 03:19:27;;;;;;;18.33;8.57;;;;;;;3.94;99.02;94056.00;5036345;28;20433;-84
2020/12/12 03:21:54;;;;;;;16.97;8.60;;;;;;;3.96;99.43;94055.44;5041636;28;20502;-82
2020/12/12 03:24:20;;;;;;;12.37;8.27;;;;;;;3.94;99.36;94049.97;5042106;28;20522;-82
2020/12/12 03:26:46;;;;;;;16.03;9.60;;;;;;;3.99;99.26;94055.03;5040973;28;20542;-83
2020/12/12 03:29:13;;;;;;;12.23;7.80;;;;;;;4.11;99.01;94060.59;5042140;28;20473;-83
2020/12/12 03:31:41;;;;;;;13.17;8.13;;;;;;;4.06;98.97;94067.59;5046625;28;20446;-83
2020/12/12 03:34:07;;;;;;;9.53;6.43;;;;;;;4.11;99.19;94065.91;5046240;28;20509;-83
2020/12/12 03:36:33;;;;;;;10.80;6.60;;;;;;;4.15;99.01;94063.56;5046109;28;20446;-83
2020/12/12 03:38:59;;;;;;;12.77;6.37;;;;;;;4.09;99.36;94061.16;5046340;28;20459;-83
2020/12/12 03:41:26;;;;;;;11.80;7.03;;;;;;;4.09;99.71;94063.81;5046574;28;20479;-82
2020/12/12 03:43:52;;;;;;;9.80;6.77;;;;;;;4.08;99.65;94065.06;5046501;28;20443;-84
2020/12/12 03:46:19;;;;;;;11.33;6.20;;;;;;;4.05;99.89;94055.50;5041829;28;20522;-86
2020/12/12 03:48:46;;;;;;;12.40;7.60;;;;;;;4.05;100.00;94063.50;5041026;28;20538;-86
2020/12/12 03:51:13;;;;;;;10.30;6.73;;;;;;;4.03;100.00;94060.00;5041625;28;20453;-86
2020/12/12 03:53:39;;;;;;;9.20;6.80;;;;;;;4.01;100.00;94068.53;5041057;28;20435;-86
2020/12/12 03:56:05;;;;;;;10.47;6.70;;;;;;;4.08;100.00;94070.41;5040791;28;20461;-84
2020/12/12 03:58:32;;;;;;;10.57;7.23;;;;;;;4.13;100.00;94077.47;5041015;28;20458;-84
2020/12/12 04:00:58;;;;;;;11.83;7.20;;;;;;;4.07;100.00;94082.31;5040373;28;20478;-84
2020/12/12 04:03:24;;;;;;;10.33;6.80;;;;;;;4.12;100.00;94081.38;5040514;28;20429;-85
2020/12/12 04:05:52;;;;;;;10.33;6.63;;;;;;;4.13;99.93;94080.16;5039946;28;20953;-85
2020/12/12 04:08:18;;;;;;;10.13;6.60;;;;;;;4.12;100.00;94080.69;5040302;28;20466;-85
2020/12/12 04:10:45;;;;;;;11.13;7.30;;;;;;;4.11;100.00;94085.31;5040594;28;20854;-84
2020/12/12 04:13:11;;;;;;;9.57;6.83;;;;;;;4.13;100.00;94079.44;5040030;28;20439;-85
2020/12/12 04:15:37;;;;;;;10.57;7.33;;;;;;;4.13;100.00;94082.81;5040183;28;20458;-86
2020/12/12 04:18:04;;;;;;;11.30;6.90;;;;;;;4.04;100.00;94083.44;5040402;28;20859;-85
2020/12/12 04:20:30;;;;;;;13.47;7.60;;;;;;;3.98;100.00;94074.28;5040287;28;20514;-84
2020/12/12 04:22:58;;;;;;;11.43;7.00;;;;;;;3.96;100.00;94082.84;5040201;28;20560;-85
2020/12/12 04:25:24;;;;;;;11.67;7.67;;;;;;;4.08;100.00;94088.38;5040268;28;20513;-85
2020/12/12 04:27:50;;;;;;;10.80;6.17;;;;;;;4.19;100.00;94083.25;5039645;28;20476;-85
2020/12/12 04:30:17;;;;;;;8.30;5.97;;;;;;;4.10;100.00;94075.88;5039754;28;20445;-86
2020/12/12 04:32:43;;;;;;;9.63;6.67;;;;;;;4.06;100.00;94086.28;5040125;28;20441;-86
2020/12/12 04:35:09;;;;;;;9.90;6.47;;;;;;;4.06;100.00;94080.94;5040084;28;20435;-87
2020/12/12 04:37:36;;;;;;;11.23;7.93;;;;;;;3.98;100.00;94080.31;5040130;28;20447;-87
2020/12/12 04:40:04;;;;;;;12.10;7.20;;;;;;;4.00;100.00;94077.09;5051246;28;20431;-86
2020/12/12 04:42:34;;;;;;;11.20;7.27;;;;;;;4.01;100.00;94084.53;5060739;28;20478;-86
2020/12/12 04:45:01;;;;;;;10.40;7.73;;;;;;;4.03;100.00;94086.66;5061738;28;20451;-86
2020/12/12 04:47:28;;;;;;;12.83;8.20;;;;;;;4.05;100.00;94090.19;5061696;28;20412;-86
2020/12/12 04:49:55;;;;;;;11.87;8.97;;;;;;;4.13;100.00;94090.09;5050914;28;20443;-85
2020/12/12 04:52:23;;;;;;;12.10;7.60;;;;;;;4.07;100.00;94082.31;5041461;28;20438;-85
2020/12/12 04:54:50;;;;;;;12.30;7.33;;;;;;;4.08;100.00;94085.72;5040243;28;20421;-85
2020/12/12 04:57:18;;;;;;;10.37;7.17;;;;;;;4.12;100.00;94089.41;5040248;28;20824;-86
2020/12/12 04:59:45;;;;;;;10.60;7.03;;;;;;;4.16;100.00;94084.38;5039568;28;20449;-86
2020/12/12 05:02:13;;;;;;;12.93;7.50;;;;;;;4.15;100.00;94090.97;5039372;28;20501;-85
2020/12/12 05:04:40;;;;;;;11.03;8.10;;;;;;;4.15;100.00;94082.25;5039881;28;20443;-85
2020/12/12 05:07:07;;;;;;;13.00;8.00;;;;;;;4.18;100.00;94081.84;5039051;28;20501;-85
2020/12/12 05:09:34;;;;;;;11.57;7.90;;;;;;;4.22;100.00;94078.78;5039727;28;20547;-87
2020/12/12 05:12:00;;;;;;;11.77;8.43;;;;;;;4.17;100.00;94082.38;5039508;28;20436;-88
2020/12/12 05:14:27;;;;;;;10.23;7.47;;;;;;;4.26;100.00;94081.75;5040232;28;20436;-86
2020/12/12 05:16:54;;;;;;;15.80;8.03;;;;;;;4.29;99.58;94084.00;5041264;28;20435;-87
2020/12/12 05:19:21;;;;;;;17.53;7.73;;;;;;;4.38;99.47;94085.34;5042934;28;20429;-86
2020/12/12 05:21:49;;;;;;;12.23;7.33;;;;;;;4.35;99.42;94085.72;5060913;28;20449;-84
2020/12/12 05:24:16;;;;;;;11.53;8.20;;;;;;;4.31;99.64;94086.84;5060596;28;20406;-82
2020/12/12 05:26:44;;;;;;;12.23;8.57;;;;;;;4.30;99.47;94090.06;5060900;28;20395;-84
2020/12/12 05:29:12;;;;;;;13.20;7.57;;;;;;;4.29;99.66;94091.31;5042374;28;20466;-86
2020/12/12 05:31:40;;;;;;;12.00;8.20;;;;;;;4.26;99.80;94089.78;5038994;28;20423;-85
2020/12/12 05:34:12;;;;;;;9.40;6.40;;;;;;;4.22;99.88;94089.47;5038828;28;20443;-84
2020/12/12 05:36:40;;;;;;;9.63;7.43;;;;;;;4.28;100.00;94089.91;5039307;28;20431;-85
2020/12/12 05:39:09;;;;;;;13.00;7.77;;;;;;;4.28;99.98;94093.28;5038798;28;20445;-85
2020/12/12 05:41:36;;;;;;;11.00;7.40;;;;;;;4.20;100.00;94094.63;5038910;28;20527;-85
2020/12/12 05:44:02;;;;;;;10.63;7.37;;;;;;;4.21;100.00;94101.38;5040687;28;20434;-84
2020/12/12 05:46:29;;;;;;;9.80;7.43;;;;;;;4.21;100.00;94094.09;5040011;28;20530;-84
2020/12/12 05:48:58;;;;;;;12.93;7.83;;;;;;;4.27;100.00;94097.22;5040237;28;20538;-86
2020/12/12 05:51:27;;;;;;;11.70;8.37;;;;;;;4.36;100.00;94093.19;5039193;28;20410;-85
2020/12/12 05:53:55;;;;;;;11.80;7.30;;;;;;;4.32;99.88;94098.91;5040660;28;20535;-85
2020/12/12 05:56:22;;;;;;;9.70;7.67;;;;;;;4.30;100.00;94100.72;5038919;28;20463;-85
2020/12/12 05:58:50;;;;;;;9.70;7.57;;;;;;;4.30;100.00;94098.78;5039424;28;20451;-85
2020/12/12 06:01:18;;;;;;;13.87;7.87;;;;;;;4.37;100.00;94096.56;5038834;28;20461;-86
2020/12/12 06:03:54;;;;;;;11.53;7.70;;;;;;;4.33;100.00;94097.66;5038867;28;20874;-85
2020/12/12 06:06:23;;;;;;;10.00;6.80;;;;;;;4.43;100.00;94105.72;5039295;28;20434;-87
2020/12/12 06:09:05;;;;;;;10.07;6.33;;;;;;;4.42;100.00;94106.28;5038540;28;20846;-86
2020/12/12 06:11:32;;;;;;;8.50;6.40;;;;;;;4.48;100.00;94104.75;5038141;28;20900;-87
2020/12/12 06:14:01;;;;;;;8.70;6.33;;;;;;;4.47;100.00;94103.38;5038418;28;20457;-87
2020/12/12 06:16:30;;;;;;;10.30;6.63;;;;;;;4.37;100.00;94107.22;5040841;28;20955;-87
2020/12/12 06:19:06;;;;;;;11.77;6.20;;;;;;;4.32;100.00;94114.25;5038397;28;20426;-84
2020/12/12 06:21:34;;;;;;;9.70;7.13;;;;;;;4.38;100.00;94119.31;5038447;28;20433;-85
2020/12/12 06:24:03;;;;;;;11.40;6.53;;;;;;;4.42;100.00;94123.00;5038812;28;20443;-85
2020/12/12 06:26:40;;;;;;;12.43;7.53;;;;;;;4.43;100.00;94113.72;5038744;28;20462;-85
2020/12/12 06:29:09;;;;;;;11.77;6.97;;;;;;;4.40;100.00;94124.81;5039507;28;20501;-84
2020/12/12 06:31:36;;;;;;;10.17;6.77;;;;;;;4.30;100.00;94130.78;5039744;28;20898;-86
2020/12/12 06:34:03;;;;;;;13.23;7.30;;;;;;;4.35;100.00;94125.78;5039120;28;20510;-86
2020/12/12 06:36:31;;;;;;;10.07;6.77;;;;;;;4.35;100.00;94131.81;5038583;28;20466;-86
2020/12/12 06:39:18;;;;;;;11.77;7.30;;;;;;;4.37;100.00;94129.28;5038945;28;20467;-87
2020/12/12 06:41:45;;;;;;;11.73;6.87;;;;;;;4.37;100.00;94133.94;5038328;28;20561;-84
2020/12/12 06:44:11;;;;;;;8.97;5.63;;;;;;;4.33;100.00;94132.34;5038635;28;20437;-84
2020/12/12 06:46:58;;;;;;;9.00;6.87;;;;;;;4.37;100.00;94141.94;5042488;28;20922;-83
2020/12/12 06:49:25;;;;;;;12.50;6.37;;;;;;;4.47;100.00;94145.38;5036503;28;20979;-82
2020/12/12 06:51:52;;;;;;;9.53;6.27;;;;;;;4.52;100.00;94142.44;5044372;28;20470;-85
2020/12/12 06:54:20;;;;;;;15.23;6.50;;;;;;;4.57;100.00;94152.19;5042122;28;20543;-83
2020/12/12 06:56:47;;;;;;;11.60;6.60;;;;;;;4.51;100.00;94151.72;5043161;28;20515;-83
2020/12/12 06:59:34;;;;;;;11.73;6.30;;;;;;;4.57;100.00;94152.19;5042800;28;20433;-83
2020/12/12 07:02:02;;;;;;;9.60;7.20;;;;;;;4.57;100.00;94151.47;5042020;28;20490;-83
2020/12/12 07:04:30;;;;;;;10.57;5.90;;;;;;;4.62;100.00;94153.88;5038673;28;20423;-86
2020/12/12 07:07:01;;;;;;;7.80;5.47;;;;;;;4.64;100.00;94162.03;5037883;28;20826;-86
2020/12/12 07:09:29;;;;;;;10.07;5.80;;;;;;;4.68;100.00;94156.31;5038671;28;20559;-86
2020/12/12 07:11:57;;;;;;;9.07;5.50;;;;;;;4.56;100.00;94166.06;5039312;28;20502;-87
2020/12/12 07:14:24;;;;;;;8.63;5.27;;;;;;;4.66;100.00;94178.25;5038955;28;20428;-87
2020/12/12 07:16:55;;;;;;;7.00;5.97;;;;;;;4.60;100.00;94177.06;5038780;28;20465;-87
2020/12/12 07:19:30;;;;;;;8.17;5.73;;;;;;;4.72;100.00;94186.00;5038934;28;20459;-86
2020/12/12 07:21:57;;;;;;;8.73;5.03;;;;;;;4.65;100.00;94184.13;5040856;28;20489;-87
2020/12/12 07:24:24;;;;;;;7.27;5.20;;;;;;;4.71;100.00;94187.25;5054687;28;20425;-86
2020/12/12 07:26:51;;;;;;;11.37;6.50;;;;;;;4.67;100.00;94190.31;5040839;28;20454;-86
2020/12/12 07:29:17;;;;;;;10.90;6.90;;;;;;;4.69;100.00;94189.78;5039326;28;20469;-87
2020/12/12 07:31:44;;;;;;;12.00;7.00;;;;;;;4.67;100.00;94187.63;5038913;28;20876;-88
2020/12/12 07:34:11;;;;;;;13.30;6.93;;;;;;;4.73;100.00;94196.09;5041766;28;20761;-87
2020/12/12 07:36:37;;;;;;;10.50;6.30;;;;;;;4.63;100.00;94192.69;5039966;28;20809;-87
2020/12/12 07:39:10;;;;;;;9.60;6.90;;;;;;;4.70;100.00;94194.53;5038645;28;20540;-87
2020/12/12 07:41:44;;;;;;;13.10;7.37;;;;;;;4.73;100.00;94206.09;5039898;28;20454;-87
2020/12/12 07:44:12;;;;;;;9.93;6.53;;;;;;;4.77;100.00;94201.06;5040062;28;20450;-83
2020/12/12 07:46:39;;;;;;;13.63;8.43;;;;;;;4.75;100.00;94206.25;5042244;28;20406;-84
2020/12/12 07:49:06;;;;;;;10.73;7.00;;;;;;;4.81;100.00;94206.72;5041823;28;20471;-83
2020/12/12 07:51:33;;;;;;;14.87;7.63;;;;;;;4.71;100.00;94214.66;5043004;28;20440;-83
2020/12/12 07:53:59;;;;;;;10.30;6.37;;;;;;;4.69;100.00;94221.81;5057983;28;20413;-85
2020/12/12 07:56:26;;;;;;;11.83;7.13;;;;;;;4.71;100.00;94213.94;5057248;28;20438;-85
2020/12/12 07:58:59;;;;;;;9.77;6.83;;;;;;;4.79;100.00;94217.94;5057518;28;20453;-85
2020/12/12 08:01:27;;;;;;;12.57;8.17;;;;;;;4.77;100.00;94228.47;5052773;28;20486;-83
2020/12/12 08:03:53;;;;;;;14.63;7.37;;;;;;;4.70;100.00;94229.28;5046331;28;20773;-82
2020/12/12 08:06:19;;;;;;;12.60;6.90;;;;;;;4.72;100.00;94228.72;5045149;28;20410;-83
2020/12/12 08:08:54;;;;;;;10.27;6.40;;;;;;;4.73;100.00;94236.19;5049311;28;20473;-90
2020/12/12 08:11:21;;;;;;;9.17;6.77;;;;;;;4.74;100.00;94240.25;5048327;28;20457;-84
2020/12/12 08:13:47;;;;;;;13.00;6.03;;;;;;;4.74;100.00;94236.88;5048897;28;20428;-85
2020/12/12 08:16:18;;;;;;;11.13;6.13;;;;;;;4.75;100.00;94235.63;5044516;28;20481;-85
2020/12/12 08:18:46;;;;;;;14.37;6.93;;;;;;;4.83;100.00;94239.63;5042418;28;20467;-86
2020/12/12 08:21:13;;;;;;;9.47;5.67;;;;;;;4.87;100.00;94244.56;5040861;28;20887;-85
2020/12/12 08:23:41;;;;;;;10.27;6.93;;;;;;;4.86;100.00;94254.53;5041813;28;20537;-85
2020/12/12 08:26:09;;;;;;;8.90;5.90;;;;;;;4.83;100.00;94255.66;5041058;28;20402;-86
2020/12/12 08:28:36;;;;;;;9.67;6.63;;;;;;;4.86;100.00;94259.16;5049545;28;20453;-88
2020/12/12 08:31:10;;;;;;;16.33;6.53;;;;;;;4.97;100.00;94258.69;5054506;28;20442;-87
2020/12/12 08:33:37;;;;;;;8.43;5.90;;;;;;;5.05;100.00;94259.28;5054348;28;20476;-89
2020/12/12 08:36:15;;;;;;;8.73;5.80;;;;;;;5.09;100.00;94266.91;5053148;28;20447;-89
2020/12/12 08:38:43;;;;;;;13.93;5.30;;;;;;;5.14;100.00;94274.66;5052138;28;20433;-89
2020/12/12 08:41:13;;;;;;;14.37;6.90;;;;;;;5.15;100.00;94281.44;5052327;28;20487;-88
2020/12/12 08:43:43;;;;;;;8.40;4.90;;;;;;;5.06;100.00;94276.75;5053609;28;20414;-83
2020/12/12 08:46:13;;;;;;;7.50;5.17;;;;;;;5.14;100.00;94282.69;5045003;28;20481;-84
2020/12/12 08:48:39;;;;;;;7.47;5.63;;;;;;;5.19;100.00;94289.06;5047529;28;20459;-85
2020/12/12 08:51:07;;;;;;;8.03;6.03;;;;;;;5.16;100.00;94284.81;5045843;28;20462;-84
2020/12/12 08:53:38;;;;;;;8.13;5.90;;;;;;;5.18;100.00;94295.66;5045901;28;20418;-83
2020/12/12 08:56:11;;;;;;;6.10;4.37;;;;;;;5.32;100.00;94296.72;5048014;28;20451;-82
2020/12/12 08:58:42;;;;;;;9.73;5.60;;;;;;;5.34;100.00;94296.88;5047463;28;20474;-84
2020/12/12 09:01:20;;;;;;;9.43;5.30;;;;;;;5.43;100.00;94298.88;5046876;28;20497;-84
2020/12/12 09:03:53;;;;;;;5.17;4.30;;;;;;;5.44;100.00;94299.59;5046160;28;20447;-83
2020/12/12 09:06:20;;;;;;;6.63;5.23;;;;;;;5.48;100.00;94305.25;5047362;28;20457;-85
2020/12/12 09:08:47;;;;;;;9.30;5.30;;;;;;;5.47;100.00;94315.22;5050801;28;20461;-86
2020/12/12 09:11:15;;;;;;;9.10;6.90;;;;;;;5.60;100.00;94314.16;5047939;28;20844;-82
2020/12/12 09:13:42;;;;;;;5.20;3.90;;;;;;;5.64;100.00;94317.81;5051040;28;20406;-86
2020/12/12 09:16:09;;;;;;;6.17;4.60;;;;;;;5.63;100.00;94313.06;5047437;28;20497;-89
2020/12/12 09:18:45;;;;;;;5.50;4.10;;;;;;;5.56;100.00;94319.91;5046059;28;20466;-87
2020/12/12 09:21:11;;;;;;;6.80;3.60;;;;;;;5.53;100.00;94326.38;5043182;28;20487;-89
2020/12/12 09:23:38;;;;;;;4.80;4.20;;;;;;;5.59;100.00;94326.13;5047642;28;20443;-88
2020/12/12 09:26:06;;;;;;;5.70;3.83;;;;;;;5.61;100.00;94328.94;5044732;28;20530;-89
2020/12/12 09:28:33;;;;;;;4.43;4.03;;;;;;;5.63;100.00;94329.81;5048277;28;20465;-89
2020/12/12 09:31:00;;;;;;;7.93;4.47;;;;;;;5.69;100.00;94332.94;5044161;28;20414;-88
2020/12/12 09:33:26;;;;;;;5.53;3.27;;;;;;;5.76;100.00;94344.78;5042984;28;20831;-87
2020/12/12 09:35:53;;;;;;;5.63;4.00;;;;;;;5.73;100.00;94346.59;5042968;28;20439;-88
2020/12/12 09:38:19;;;;;;;7.10;4.30;;;;;;;5.88;100.00;94348.38;5042749;28;20438;-86
2020/12/12 09:40:49;;;;;;;5.67;3.40;;;;;;;5.95;99.65;94349.53;5040578;28;20855;-87
2020/12/12 09:43:17;;;;;;;4.00;3.27;;;;;;;6.02;98.92;94352.09;5042331;28;20428;-88
2020/12/12 09:45:43;;;;;;;3.50;2.77;;;;;;;5.93;98.84;94358.13;5041093;28;20529;-90
2020/12/12 09:48:10;;;;;;;4.57;3.20;;;;;;;5.96;99.76;94358.97;5041732;28;20452;-86
2020/12/12 09:50:37;;;;;;;3.07;2.80;;;;;;;6.05;99.07;94363.63;5045354;28;20489;-82
2020/12/12 09:53:05;;;;;;;4.70;3.03;;;;;;;6.04;98.52;94372.97;5046273;28;20439;-82
2020/12/12 09:55:32;;;;;;;5.67;3.60;;;;;;;6.07;99.21;94377.91;5047563;28;20447;-82
2020/12/12 09:57:59;;;;;;;3.93;2.80;;;;;;;6.12;98.57;94368.19;5045679;28;20463;-83
2020/12/12 10:00:27;;;;;;;3.53;2.73;;;;;;;6.13;98.54;94370.31;5046531;28;20439;-84
2020/12/12 10:02:54;;;;;;;3.97;3.10;;;;;;;6.14;98.12;94374.38;5047167;28;20468;-82
2020/12/12 10:05:20;;;;;;;4.73;3.80;;;;;;;6.20;97.14;94372.16;5047468;28;20461;-85
2020/12/12 10:07:47;;;;;;;3.53;3.23;;;;;;;6.15;96.79;94373.13;5047177;28;20467;-83
2020/12/12 10:10:13;;;;;;;4.90;2.80;;;;;;;6.26;97.12;94375.28;5046765;28;20455;-83
2020/12/12 10:12:40;;;;;;;5.87;3.80;;;;;;;6.30;96.58;94375.56;5048316;28;20430;-83
2020/12/12 10:15:06;;;;;;;3.60;2.30;;;;;;;6.26;96.29;94377.97;5052680;28;20437;-83
2020/12/12 10:17:33;;;;;;;3.97;2.90;;;;;;;6.31;96.24;94379.66;5054105;28;20448;-84
2020/12/12 10:20:00;;;;;;;4.53;2.47;;;;;;;6.29;95.65;94378.81;5048035;28;20482;-83
2020/12/12 10:22:26;;;;;;;3.60;2.47;;;;;;;6.28;96.06;94377.41;5044881;28;20483;-83
2020/12/12 10:24:53;;;;;;;3.03;2.40;;;;;;;6.31;96.31;94384.31;5045420;28;20462;-82
2020/12/12 10:27:20;;;;;;;2.50;2.30;;;;;;;6.40;95.96;94387.00;5048227;28;20436;-84
2020/12/12 10:29:46;;;;;;;3.83;3.13;;;;;;;6.51;95.74;94383.09;5046012;28;20444;-84
2020/12/12 10:32:12;;;;;;;4.60;3.20;;;;;;;6.55;95.10;94388.72;5051574;28;20506;-87
2020/12/12 10:34:40;;;;;;;4.73;3.00;;;;;;;6.56;94.84;94395.50;5050398;28;20863;-83
2020/12/12 10:37:06;;;;;;;7.40;2.87;;;;;;;6.52;96.03;94397.19;5047839;28;20433;-84
2020/12/12 10:39:35;;;;;;;2.87;2.43;;;;;;;6.54;96.26;94395.38;5046189;28;20456;-85
2020/12/12 10:42:01;;;;;;;3.53;2.70;;;;;;;6.62;95.79;94395.94;5044553;28;20475;-84
2020/12/12 10:44:28;;;;;;;3.77;2.40;;;;;;;6.59;95.36;94399.75;5046370;28;20418;-84
2020/12/12 10:46:55;;;;;;;5.50;3.87;;;;;;;6.70;95.53;94401.19;5044249;28;20421;-85
2020/12/12 10:49:21;;;;;;;3.70;3.07;;;;;;;6.69;95.23;94400.47;5044986;28;20456;-84
2020/12/12 10:51:53;;;;;;;3.70;2.77;;;;;;;6.75;95.36;94402.88;5044322;28;20531;-84
2020/12/12 10:54:20;;;;;;;3.80;2.23;;;;;;;6.67;95.18;94403.00;5025727;28;20456;-83
2020/12/12 10:56:47;;;;;;;3.07;2.60;;;;;;;6.77;95.39;94409.09;5029818;28;20475;-84
2020/12/12 10:59:14;;;;;;;4.93;3.00;;;;;;;6.76;94.96;94409.66;5025722;28;21002;-83
2020/12/12 11:01:40;;;;;;;2.43;2.20;;;;;;;6.84;94.85;94410.94;5024537;28;20830;-84
2020/12/12 11:04:07;;;;;;;2.90;2.67;;;;;;;6.91;94.17;94409.38;5025251;28;20403;-84
2020/12/12 11:06:33;;;;;;;3.23;2.63;;;;;;;6.90;94.85;94407.97;5024363;28;20441;-83
2020/12/12 11:09:01;;;;;;;4.47;2.80;;;;;;;6.95;94.02;94417.72;5042742;28;20459;-85
2020/12/12 11:11:28;;;;;;;6.70;3.57;;;;;;;6.99;93.90;94418.69;5046178;28;20471;-84
2020/12/12 11:13:55;;;;;;;7.97;4.73;;;;;;;6.98;94.17;94417.28;5040848;28;20417;-85
2020/12/12 11:16:21;;;;;;;5.70;4.07;;;;;;;6.93;94.76;94412.19;5040898;28;20428;-84
2020/12/12 11:18:50;;;;;;;3.90;3.50;;;;;;;7.02;95.07;94418.88;5043768;28;20475;-84
2020/12/12 11:21:19;;;;;;;3.80;2.60;;;;;;;7.00;94.71;94416.72;5041761;28;20489;-85
2020/12/12 11:23:45;;;;;;;4.20;2.30;;;;;;;7.05;94.27;94413.06;5039434;28;20473;-86
2020/12/12 11:26:13;;;;;;;4.00;2.93;;;;;;;7.11;94.34;94421.53;5041015;28;20448;-84
2020/12/12 11:28:40;;;;;;;2.80;2.40;;;;;;;7.10;94.70;94422.09;5041006;28;20765;-83
2020/12/12 11:31:06;;;;;;;3.37;2.50;;;;;;;7.14;94.51;94425.06;5039616;28;20446;-82